Time;durP1;ratioP1;P1;durP2;ratioP2;P2;SDS_P1;SDS_P2;PMS_P1;PMS_P2;Temp;Humidity;BMP_temperature;BMP_pressure;BME280_temperature;BME280_humidity;BME280_pressure;Samples;Min_cycle;Max_cycle;Signal;HPM_P1;HPM_P2
2023/11/01 00:00:06;;;;;;;14.85;8.27;;;12.00;99.90;;;;;;4979231;28;20052;-76
2023/11/01 00:02:39;;;;;;;13.55;8.52;;;12.00;99.90;;;;;;5000473;28;20444;-76
2023/11/01 00:05:06;;;;;;;13.90;7.65;;;12.00;99.90;;;;;;4995871;28;20037;-75
2023/11/01 00:07:32;;;;;;;11.60;7.72;;;12.00;99.90;;;;;;4997230;28;20033;-76
2023/11/01 00:09:58;;;;;;;12.23;7.28;;;12.00;99.90;;;;;;4995224;28;20906;-76
2023/11/01 00:12:25;;;;;;;14.48;7.68;;;12.00;99.90;;;;;;4995380;28;20042;-76
2023/11/01 00:14:51;;;;;;;10.32;6.25;;;12.00;99.90;;;;;;4995089;28;20388;-76
2023/11/01 00:17:18;;;;;;;13.13;7.13;;;12.00;99.90;;;;;;5011348;28;20033;-76
2023/11/01 00:19:44;;;;;;;14.80;8.15;;;12.00;99.90;;;;;;4979426;28;20045;-76
2023/11/01 00:22:10;;;;;;;8.52;5.95;;;12.00;99.90;;;;;;4994890;28;20041;-76
2023/11/01 00:24:37;;;;;;;8.88;5.55;;;12.00;99.90;;;;;;4978554;28;20443;-76
2023/11/01 00:27:04;;;;;;;9.63;5.90;;;12.00;99.90;;;;;;4997252;28;20033;-76
2023/11/01 00:29:30;;;;;;;9.52;5.70;;;11.90;99.90;;;;;;4995848;28;20472;-76
2023/11/01 00:31:56;;;;;;;8.18;6.00;;;11.90;99.90;;;;;;4996460;28;20049;-76
2023/11/01 00:34:23;;;;;;;9.50;5.40;;;11.90;99.90;;;;;;4981019;28;20203;-76
2023/11/01 00:36:50;;;;;;;11.85;6.35;;;11.90;99.90;;;;;;4979435;28;20203;-76
2023/11/01 00:39:16;;;;;;;12.32;6.38;;;11.90;99.90;;;;;;4995554;28;20040;-76
2023/11/01 00:41:42;;;;;;;10.40;5.55;;;11.90;99.90;;;;;;4963540;28;20038;-76
2023/11/01 00:44:08;;;;;;;10.60;6.53;;;11.90;99.90;;;;;;4996060;28;20041;-76
2023/11/01 00:46:36;;;;;;;7.63;5.97;;;11.90;99.90;;;;;;4998608;28;20057;-76
2023/11/01 00:49:02;;;;;;;6.22;5.03;;;11.90;99.90;;;;;;5013397;28;20041;-76
2023/11/01 00:51:29;;;;;;;5.68;4.35;;;11.90;99.90;;;;;;4994841;28;20333;-76
2023/11/01 00:53:55;;;;;;;8.98;5.68;;;12.00;99.90;;;;;;4993088;28;20045;-76
2023/11/01 00:56:21;;;;;;;8.82;5.35;;;12.00;99.90;;;;;;4978729;28;20045;-76
2023/11/01 00:58:48;;;;;;;9.35;5.25;;;11.90;99.90;;;;;;4994486;28;20033;-76
2023/11/01 01:01:14;;;;;;;13.30;6.05;;;12.00;99.90;;;;;;4997536;28;20785;-76
2023/11/01 01:03:40;;;;;;;5.43;4.80;;;12.00;99.90;;;;;;5026916;28;20049;-76
2023/11/01 01:06:07;;;;;;;7.50;4.88;;;12.00;99.90;;;;;;4965199;28;20029;-76
2023/11/01 01:08:33;;;;;;;6.53;4.95;;;12.00;99.90;;;;;;4997646;28;20594;-76
2023/11/01 01:10:59;;;;;;;9.48;5.13;;;12.00;99.90;;;;;;4997042;28;20030;-76
2023/11/01 01:13:26;;;;;;;15.23;6.65;;;12.00;99.90;;;;;;4992547;28;20034;-76
2023/11/01 01:15:52;;;;;;;13.55;6.47;;;12.00;99.90;;;;;;4978937;28;20385;-76
2023/11/01 01:18:20;;;;;;;9.05;6.35;;;12.00;99.90;;;;;;4975930;28;20030;-76
2023/11/01 01:20:47;;;;;;;7.50;5.38;;;12.10;99.90;;;;;;4992396;28;20061;-76
2023/11/01 01:23:14;;;;;;;8.20;5.78;;;12.10;99.90;;;;;;4959378;28;20698;-76
2023/11/01 01:25:40;;;;;;;9.85;6.47;;;12.00;99.90;;;;;;4992876;28;20042;-76
2023/11/01 01:28:07;;;;;;;13.43;6.53;;;12.10;99.90;;;;;;4991705;28;20044;-76
2023/11/01 01:30:33;;;;;;;7.72;6.13;;;12.00;99.90;;;;;;4994388;28;20479;-76
2023/11/01 01:32:59;;;;;;;7.93;5.57;;;12.10;99.90;;;;;;4992195;28;20560;-76
2023/11/01 01:35:26;;;;;;;10.20;6.80;;;12.00;99.90;;;;;;4992107;28;20048;-76
2023/11/01 01:37:52;;;;;;;8.43;5.93;;;12.10;99.90;;;;;;4975541;28;20037;-76
2023/11/01 01:40:18;;;;;;;10.18;6.05;;;12.10;99.90;;;;;;4975631;28;20038;-76
2023/11/01 01:42:45;;;;;;;13.30;7.22;;;12.10;99.90;;;;;;4991590;28;20058;-76
2023/11/01 01:45:11;;;;;;;10.07;6.20;;;12.10;99.90;;;;;;4977224;28;20045;-76
2023/11/01 01:47:38;;;;;;;10.55;6.90;;;12.00;99.90;;;;;;5008938;28;20038;-76
2023/11/01 01:50:07;;;;;;;9.65;5.82;;;12.10;99.90;;;;;;4975995;28;20041;-76
2023/11/01 01:52:34;;;;;;;11.50;6.30;;;12.10;99.90;;;;;;4992620;28;20481;-76
2023/11/01 01:55:02;;;;;;;12.52;6.13;;;12.10;99.90;;;;;;4993668;28;20041;-76
2023/11/01 01:57:28;;;;;;;10.35;5.90;;;12.00;99.90;;;;;;4975943;28;20495;-76
2023/11/01 01:59:57;;;;;;;16.23;8.02;;;12.00;99.90;;;;;;4976842;28;20038;-76
2023/11/01 02:02:24;;;;;;;11.10;5.53;;;12.00;99.90;;;;;;4974732;28;20033;-76
2023/11/01 02:04:50;;;;;;;11.80;5.88;;;12.00;99.90;;;;;;4994905;28;20129;-76
2023/11/01 02:07:17;;;;;;;9.23;5.30;;;12.00;99.90;;;;;;4977648;28;20034;-76
2023/11/01 02:09:43;;;;;;;11.88;5.25;;;11.90;99.90;;;;;;5009390;28;20033;-76
2023/11/01 02:12:10;;;;;;;7.28;5.13;;;11.90;99.90;;;;;;5011965;28;20049;-76
2023/11/01 02:14:36;;;;;;;9.43;5.00;;;11.90;99.90;;;;;;4993028;28;20071;-76
2023/11/01 02:17:06;;;;;;;10.23;5.13;;;11.90;99.90;;;;;;4995118;28;20818;-76
2023/11/01 02:19:33;;;;;;;6.28;3.88;;;11.90;99.90;;;;;;4978892;28;20056;-75
2023/11/01 02:21:59;;;;;;;7.65;4.07;;;11.80;99.90;;;;;;4993859;28;20045;-76
2023/11/01 02:24:26;;;;;;;10.40;5.15;;;11.80;99.90;;;;;;4993996;28;20029;-76
2023/11/01 02:26:53;;;;;;;9.02;4.57;;;11.80;99.90;;;;;;4994285;28;20041;-76
2023/11/01 02:29:22;;;;;;;12.02;3.97;;;11.80;99.90;;;;;;5009636;28;20033;-76
2023/11/01 02:31:50;;;;;;;13.63;5.43;;;11.80;99.90;;;;;;4981297;28;20052;-76
2023/11/01 02:34:16;;;;;;;6.35;3.80;;;11.80;99.90;;;;;;4997747;28;20030;-76
2023/11/01 02:36:42;;;;;;;7.72;4.47;;;11.80;99.90;;;;;;5001330;28;20532;-75
2023/11/01 02:39:10;;;;;;;9.43;4.35;;;11.80;99.90;;;;;;4998293;28;20034;-76
2023/11/01 02:41:38;;;;;;;7.75;4.30;;;11.70;99.90;;;;;;4980605;28;20061;-76
2023/11/01 02:44:08;;;;;;;9.63;4.78;;;11.70;99.90;;;;;;4981501;28;20037;-76
2023/11/01 02:46:34;;;;;;;6.05;3.88;;;11.70;99.90;;;;;;4981074;28;20464;-76
2023/11/01 02:49:03;;;;;;;9.55;4.70;;;11.70;99.90;;;;;;4964325;28;20042;-76
2023/11/01 02:51:30;;;;;;;6.78;3.33;;;11.70;99.90;;;;;;4980569;28;20034;-75
2023/11/01 02:53:57;;;;;;;9.18;3.47;;;11.70;99.90;;;;;;4998060;28;20033;-75
2023/11/01 02:56:23;;;;;;;7.57;3.28;;;11.70;99.90;;;;;;4964748;28;20038;-76
2023/11/01 02:58:50;;;;;;;7.05;2.65;;;11.70;99.90;;;;;;4980822;28;20038;-75
2023/11/01 03:01:17;;;;;;;7.10;2.92;;;11.70;99.90;;;;;;4996218;28;20052;-75
2023/11/01 03:03:43;;;;;;;2.75;1.65;;;11.70;99.90;;;;;;4979260;28;20050;-75
2023/11/01 03:06:09;;;;;;;5.25;2.50;;;11.70;99.90;;;;;;4997010;28;20049;-75
2023/11/01 03:08:36;;;;;;;6.75;2.78;;;11.70;99.90;;;;;;4996347;28;20056;-75
2023/11/01 03:11:03;;;;;;;5.57;2.55;;;11.70;99.90;;;;;;4997827;28;20744;-75
2023/11/01 03:13:30;;;;;;;4.50;2.45;;;11.70;99.90;;;;;;4980326;28;20047;-75
2023/11/01 03:15:56;;;;;;;7.38;2.17;;;11.70;99.90;;;;;;4997275;28;20387;-76
2023/11/01 03:18:22;;;;;;;4.35;2.45;;;11.70;99.90;;;;;;4964683;28;20030;-75
2023/11/01 03:20:48;;;;;;;6.85;3.05;;;11.70;99.90;;;;;;4981624;28;20057;-75
2023/11/01 03:23:15;;;;;;;7.28;3.05;;;11.70;99.90;;;;;;4995475;28;20041;-75
2023/11/01 03:25:41;;;;;;;6.50;3.10;;;11.70;99.90;;;;;;5029878;28;20496;-76
2023/11/01 03:28:08;;;;;;;6.72;2.80;;;11.70;99.90;;;;;;4980572;28;20033;-76
2023/11/01 03:30:34;;;;;;;5.40;3.42;;;11.70;99.90;;;;;;4998232;28;20038;-75
2023/11/01 03:33:01;;;;;;;5.82;2.50;;;11.70;99.90;;;;;;4997132;28;20034;-75
2023/11/01 03:35:27;;;;;;;6.90;3.33;;;11.70;99.90;;;;;;4980284;28;20046;-75
2023/11/01 03:37:53;;;;;;;6.63;4.13;;;11.70;99.90;;;;;;4979370;28;20022;-75
2023/11/01 03:40:20;;;;;;;6.60;2.92;;;11.70;99.90;;;;;;4995722;28;20033;-75
2023/11/01 03:42:46;;;;;;;8.88;4.72;;;11.70;99.90;;;;;;4978512;28;20390;-75
2023/11/01 03:45:12;;;;;;;7.40;4.05;;;11.70;99.90;;;;;;5029026;28;20038;-75
2023/11/01 03:47:39;;;;;;;11.50;4.97;;;11.80;99.90;;;;;;4996300;28;20034;-75
2023/11/01 03:50:07;;;;;;;7.95;4.00;;;11.70;99.90;;;;;;5013502;28;20038;-75
2023/11/01 03:52:33;;;;;;;11.23;5.40;;;11.70;99.90;;;;;;4978100;28;20655;-76
2023/11/01 03:55:00;;;;;;;5.57;3.55;;;11.70;99.90;;;;;;4994576;28;20026;-76
2023/11/01 03:57:26;;;;;;;4.90;3.50;;;11.70;99.90;;;;;;4977680;28;20033;-75
2023/11/01 03:59:54;;;;;;;5.20;3.38;;;11.70;99.90;;;;;;4998304;28;20033;-75
2023/11/01 04:02:20;;;;;;;5.38;3.05;;;11.70;99.90;;;;;;5010156;28;20045;-75
2023/11/01 04:04:46;;;;;;;8.35;3.35;;;11.80;99.90;;;;;;4996557;28;21465;-76
2023/11/01 04:07:13;;;;;;;9.43;4.57;;;11.80;99.90;;;;;;4996828;28;20030;-75
2023/11/01 04:09:39;;;;;;;8.90;3.08;;;11.80;99.90;;;;;;4979719;28;20611;-75
2023/11/01 04:12:06;;;;;;;5.53;3.72;;;11.80;99.90;;;;;;4962502;28;20050;-75
2023/11/01 04:14:32;;;;;;;3.78;2.22;;;11.80;99.90;;;;;;4979317;28;20041;-75
2023/11/01 04:16:59;;;;;;;9.45;4.00;;;11.80;99.90;;;;;;4997073;28;20991;-75
2023/11/01 04:19:26;;;;;;;5.78;3.10;;;11.80;99.90;;;;;;5011817;28;20026;-75
2023/11/01 04:21:53;;;;;;;7.43;3.22;;;11.80;99.90;;;;;;4996826;28;20041;-74
2023/11/01 04:24:19;;;;;;;4.22;3.40;;;11.80;99.90;;;;;;4994191;28;20040;-75
2023/11/01 04:26:45;;;;;;;3.88;3.10;;;11.80;99.90;;;;;;4978842;28;20037;-75
2023/11/01 04:29:12;;;;;;;4.57;3.28;;;11.80;99.90;;;;;;4995973;28;20034;-75
2023/11/01 04:31:38;;;;;;;5.70;3.28;;;11.80;99.90;;;;;;4979511;28;20041;-75
2023/11/01 04:34:05;;;;;;;4.82;3.03;;;11.80;99.90;;;;;;4995674;28;20060;-75
2023/11/01 04:36:35;;;;;;;5.63;2.67;;;11.80;99.90;;;;;;4994843;28;20026;-75
2023/11/01 04:39:03;;;;;;;4.93;2.85;;;11.80;99.90;;;;;;4995928;28;20041;-75
2023/11/01 04:41:29;;;;;;;3.90;2.17;;;11.80;99.90;;;;;;4996481;28;20038;-75
2023/11/01 04:43:55;;;;;;;3.78;2.83;;;11.80;99.90;;;;;;4996010;28;20045;-75
2023/11/01 04:46:22;;;;;;;4.97;3.97;;;11.80;99.90;;;;;;4995467;28;20034;-75
2023/11/01 04:48:49;;;;;;;5.32;3.50;;;11.80;99.90;;;;;;5011920;28;20451;-75
2023/11/01 04:51:16;;;;;;;4.85;2.85;;;11.80;99.90;;;;;;4962038;28;20714;-75
2023/11/01 04:53:43;;;;;;;4.60;3.30;;;11.80;99.90;;;;;;4978691;28;20037;-75
2023/11/01 04:56:09;;;;;;;6.93;4.55;;;11.80;99.90;;;;;;4995973;28;20034;-75
2023/11/01 04:58:35;;;;;;;5.13;3.40;;;11.80;99.90;;;;;;4995746;28;20048;-75
2023/11/01 05:01:05;;;;;;;4.70;2.83;;;11.80;99.90;;;;;;4997053;28;20042;-75
2023/11/01 05:03:32;;;;;;;3.72;2.90;;;11.80;99.90;;;;;;4998038;28;20033;-75
2023/11/01 05:05:58;;;;;;;3.22;2.28;;;11.80;99.90;;;;;;4963056;28;20045;-75
2023/11/01 05:08:25;;;;;;;2.83;2.17;;;11.80;99.90;;;;;;4979611;28;20530;-75
2023/11/01 05:10:51;;;;;;;2.75;2.47;;;11.90;99.90;;;;;;4994644;28;20045;-75
2023/11/01 05:13:18;;;;;;;3.92;3.63;;;11.80;99.90;;;;;;4980022;28;20067;-75
2023/11/01 05:15:44;;;;;;;4.78;3.67;;;11.90;99.90;;;;;;4996942;28;20037;-75
2023/11/01 05:18:10;;;;;;;3.50;3.20;;;11.90;99.90;;;;;;4995881;28;20034;-75
2023/11/01 05:20:39;;;;;;;3.47;3.17;;;11.90;99.90;;;;;;4978349;28;20041;-75
2023/11/01 05:23:05;;;;;;;3.15;2.50;;;11.90;99.90;;;;;;4994444;28;20038;-75
2023/11/01 05:25:32;;;;;;;3.67;2.67;;;11.90;99.90;;;;;;4995253;28;20048;-75
2023/11/01 05:27:58;;;;;;;4.97;4.22;;;11.90;99.90;;;;;;4996619;28;20025;-76
2023/11/01 05:30:24;;;;;;;4.95;4.22;;;11.90;99.90;;;;;;4996637;28;20372;-75
2023/11/01 05:32:51;;;;;;;5.88;5.30;;;11.90;99.90;;;;;;4978499;28;20524;-75
2023/11/01 05:35:17;;;;;;;4.95;4.43;;;12.00;99.90;;;;;;4994716;28;20034;-75
2023/11/01 05:37:44;;;;;;;5.10;4.60;;;12.00;99.90;;;;;;4978328;28;20038;-75
2023/11/01 05:40:13;;;;;;;10.00;6.65;;;12.00;99.90;;;;;;4996554;28;20040;-75
2023/11/01 05:42:41;;;;;;;6.50;5.03;;;12.00;99.90;;;;;;4962300;28;20033;-75
2023/11/01 05:45:08;;;;;;;6.10;5.53;;;12.00;99.90;;;;;;4979493;28;20049;-75
2023/11/01 05:47:35;;;;;;;4.85;4.35;;;12.00;99.90;;;;;;4979949;28;20410;-75
2023/11/01 05:50:01;;;;;;;6.75;5.97;;;12.10;99.90;;;;;;4992902;28;20040;-75
2023/11/01 05:52:30;;;;;;;6.70;5.97;;;12.10;99.90;;;;;;4996289;28;20029;-75
2023/11/01 05:54:57;;;;;;;9.65;7.05;;;12.10;99.90;;;;;;4978947;28;20034;-75
2023/11/01 05:57:23;;;;;;;7.45;6.57;;;12.10;99.90;;;;;;4994375;28;20046;-76
2023/11/01 05:59:50;;;;;;;7.53;6.55;;;12.20;99.90;;;;;;4994812;28;20141;-76
2023/11/01 06:02:17;;;;;;;9.23;7.30;;;12.20;99.90;;;;;;5007125;28;20034;-75
2023/11/01 06:04:43;;;;;;;7.60;6.78;;;12.20;99.90;;;;;;5027517;28;20068;-74
2023/11/01 06:07:10;;;;;;;10.52;7.30;;;12.20;99.90;;;;;;4966773;28;20049;-75
2023/11/01 06:09:36;;;;;;;8.60;5.75;;;12.20;99.90;;;;;;4999519;28;20037;-75
2023/11/01 06:12:05;;;;;;;15.43;8.00;;;12.20;99.90;;;;;;4983263;28;20048;-75
2023/11/01 06:14:32;;;;;;;7.78;6.93;;;12.20;99.90;;;;;;4982990;28;20034;-76
2023/11/01 06:16:58;;;;;;;11.35;8.45;;;12.20;99.90;;;;;;4999987;28;20396;-75
2023/11/01 06:19:25;;;;;;;12.18;7.10;;;12.30;99.90;;;;;;4997460;28;20037;-75
2023/11/01 06:21:51;;;;;;;9.80;6.78;;;12.30;99.90;;;;;;4999427;28;20500;-75
2023/11/01 06:24:17;;;;;;;9.63;6.28;;;12.30;99.90;;;;;;4997947;28;20041;-75
2023/11/01 06:26:44;;;;;;;12.43;7.82;;;12.30;99.90;;;;;;5000451;28;20527;-76
2023/11/01 06:29:11;;;;;;;9.73;5.55;;;12.40;99.90;;;;;;4982146;28;20484;-75
2023/11/01 06:31:38;;;;;;;8.57;6.20;;;12.40;99.90;;;;;;4999577;28;20052;-75
2023/11/01 06:34:04;;;;;;;8.23;5.45;;;12.40;99.90;;;;;;4998952;28;20036;-75
2023/11/01 06:36:30;;;;;;;11.65;6.90;;;12.40;99.90;;;;;;4999350;28;20030;-75
2023/11/01 06:38:57;;;;;;;10.68;5.55;;;12.40;99.90;;;;;;4999213;28;20121;-76
2023/11/01 06:41:23;;;;;;;9.02;5.13;;;12.40;99.90;;;;;;4997908;28;20037;-76
2023/11/01 06:43:50;;;;;;;7.78;5.32;;;12.50;99.90;;;;;;4999000;28;20050;-75
2023/11/01 06:46:16;;;;;;;9.38;5.53;;;12.50;99.90;;;;;;4984931;28;20026;-75
2023/11/01 06:48:43;;;;;;;7.90;4.35;;;12.50;99.90;;;;;;5000129;28;20056;-76
2023/11/01 06:51:10;;;;;;;12.82;6.57;;;12.50;99.90;;;;;;5000100;28;20029;-75
2023/11/01 06:53:36;;;;;;;10.50;5.40;;;12.50;99.90;;;;;;4998362;28;20416;-75
2023/11/01 06:56:04;;;;;;;12.23;5.90;;;12.50;99.90;;;;;;5029646;28;20417;-75
2023/11/01 06:58:30;;;;;;;13.85;5.97;;;12.50;99.90;;;;;;4997256;28;20389;-75
2023/11/01 07:00:56;;;;;;;11.23;4.32;;;12.50;99.90;;;;;;4999274;28;20037;-75
2023/11/01 07:03:23;;;;;;;8.95;3.70;;;12.60;99.90;;;;;;4997939;28;20053;-75
2023/11/01 07:05:50;;;;;;;10.82;4.18;;;12.60;99.90;;;;;;4981830;28;20037;-75
2023/11/01 07:08:17;;;;;;;11.82;4.75;;;12.60;99.90;;;;;;4978678;28;20463;-75
2023/11/01 07:10:43;;;;;;;10.00;4.13;;;12.60;99.90;;;;;;4998808;28;20495;-75
2023/11/01 07:13:09;;;;;;;12.38;6.15;;;12.60;99.90;;;;;;4999163;28;20041;-76
2023/11/01 07:15:37;;;;;;;9.65;4.90;;;12.70;99.90;;;;;;4980424;28;20030;-76
2023/11/01 07:18:06;;;;;;;14.40;6.20;;;12.70;99.90;;;;;;4981980;28;20026;-76
2023/11/01 07:20:32;;;;;;;10.90;6.40;;;12.70;99.90;;;;;;4966303;28;20037;-76
2023/11/01 07:22:59;;;;;;;9.38;6.22;;;12.70;99.90;;;;;;5001355;28;20037;-76
2023/11/01 07:25:25;;;;;;;9.85;5.30;;;12.70;99.90;;;;;;5000731;28;20487;-76
2023/11/01 07:27:51;;;;;;;8.88;4.88;;;12.80;99.90;;;;;;4982050;28;20030;-76
2023/11/01 07:30:18;;;;;;;12.55;5.72;;;12.80;99.90;;;;;;4982743;28;20029;-75
2023/11/01 07:32:44;;;;;;;10.80;4.85;;;12.80;99.90;;;;;;4998316;28;20060;-74
2023/11/01 07:35:11;;;;;;;10.52;5.40;;;12.80;99.90;;;;;;4998366;28;20045;-76
2023/11/01 07:37:37;;;;;;;15.25;6.45;;;12.80;99.90;;;;;;5014586;28;20049;-76
2023/11/01 07:40:05;;;;;;;18.33;7.93;;;12.80;99.90;;;;;;4997969;28;20408;-76
2023/11/01 07:42:31;;;;;;;11.38;6.22;;;12.80;99.90;;;;;;5000588;28;20029;-76
2023/11/01 07:44:57;;;;;;;10.13;5.80;;;12.80;99.90;;;;;;5030442;28;20392;-77
2023/11/01 07:47:24;;;;;;;8.90;4.53;;;12.80;99.90;;;;;;4996487;28;20029;-76
2023/11/01 07:49:52;;;;;;;9.18;4.10;;;12.80;99.90;;;;;;4998417;28;21000;-77
2023/11/01 07:52:18;;;;;;;10.68;4.88;;;12.90;99.90;;;;;;4997943;28;20030;-76
2023/11/01 07:54:44;;;;;;;16.75;5.28;;;12.80;99.90;;;;;;4984416;28;20042;-76
2023/11/01 07:57:11;;;;;;;11.32;4.45;;;12.80;99.90;;;;;;4981825;28;20057;-76
2023/11/01 07:59:37;;;;;;;7.55;3.80;;;12.90;99.90;;;;;;4981724;28;20488;-76
2023/11/01 08:02:03;;;;;;;12.15;4.70;;;12.90;99.90;;;;;;4996470;28;20088;-76
2023/11/01 08:04:30;;;;;;;13.48;5.07;;;12.90;99.90;;;;;;4981614;28;20424;-77
2023/11/01 08:06:56;;;;;;;13.27;4.65;;;13.00;99.90;;;;;;4998865;28;20033;-76
2023/11/01 08:09:22;;;;;;;9.80;4.70;;;13.00;99.90;;;;;;5014224;28;20032;-76
2023/11/01 08:11:49;;;;;;;14.70;4.97;;;13.00;99.90;;;;;;4999287;28;20037;-77
2023/11/01 08:14:15;;;;;;;10.80;4.07;;;13.00;99.90;;;;;;4998526;28;20045;-77
2023/11/01 08:16:41;;;;;;;9.98;3.10;;;13.10;99.90;;;;;;4999572;28;20049;-77
2023/11/01 08:19:09;;;;;;;9.85;3.47;;;13.10;99.90;;;;;;4998130;28;20044;-77
2023/11/01 08:21:35;;;;;;;10.30;3.42;;;13.10;99.90;;;;;;5000090;28;20045;-77
2023/11/01 08:24:02;;;;;;;8.32;3.25;;;13.20;99.90;;;;;;5000408;28;20042;-77
2023/11/01 08:26:28;;;;;;;9.95;3.13;;;13.20;99.90;;;;;;4997878;28;20029;-77
2023/11/01 08:28:54;;;;;;;12.18;3.63;;;13.20;99.90;;;;;;4981206;28;20045;-77
2023/11/01 08:31:21;;;;;;;10.98;3.22;;;13.20;99.90;;;;;;5031288;28;20137;-77
2023/11/01 08:33:48;;;;;;;13.60;4.13;;;13.30;99.90;;;;;;4998142;28;20038;-77
2023/11/01 08:36:14;;;;;;;18.73;4.13;;;13.30;99.90;;;;;;4966551;28;20032;-77
2023/11/01 08:38:41;;;;;;;11.50;3.20;;;13.30;99.90;;;;;;4983164;28;20026;-76
2023/11/01 08:41:09;;;;;;;8.73;2.97;;;13.30;99.90;;;;;;4982635;28;20397;-77
2023/11/01 08:43:36;;;;;;;12.55;2.28;;;13.40;99.90;;;;;;4999981;28;20052;-77
2023/11/01 08:46:02;;;;;;;9.45;2.40;;;13.40;99.90;;;;;;4999630;28;20060;-77
2023/11/01 08:48:29;;;;;;;6.72;2.08;;;13.40;99.90;;;;;;5012965;28;20030;-77
2023/11/01 08:50:55;;;;;;;11.80;3.08;;;13.50;99.90;;;;;;4981449;28;20515;-77
2023/11/01 08:53:22;;;;;;;11.85;2.83;;;13.50;99.90;;;;;;4996375;28;20392;-77
2023/11/01 08:55:49;;;;;;;11.88;2.90;;;13.50;99.90;;;;;;4999157;28;20049;-77
2023/11/01 08:58:16;;;;;;;11.82;2.63;;;13.50;99.90;;;;;;4998342;28;20037;-78
2023/11/01 09:00:42;;;;;;;12.20;2.05;;;13.50;99.90;;;;;;4998316;28;20428;-77
2023/11/01 09:03:08;;;;;;;8.45;2.25;;;13.50;99.90;;;;;;5000098;28;20575;-77
2023/11/01 09:05:34;;;;;;;12.27;3.08;;;13.50;99.90;;;;;;4999507;28;20026;-77
2023/11/01 09:08:01;;;;;;;12.18;2.50;;;13.50;99.90;;;;;;4996523;28;20473;-77
2023/11/01 09:10:27;;;;;;;9.05;1.95;;;13.50;99.90;;;;;;4997857;28;20639;-77
2023/11/01 09:12:53;;;;;;;4.55;1.27;;;13.50;99.90;;;;;;4998048;28;20038;-77
2023/11/01 09:15:20;;;;;;;8.70;1.60;;;13.50;99.90;;;;;;4964382;28;20029;-77
2023/11/01 09:17:46;;;;;;;11.75;2.00;;;13.50;99.90;;;;;;4996698;28;20026;-77
2023/11/01 09:20:12;;;;;;;14.70;3.70;;;13.50;99.90;;;;;;4983545;28;20396;-77
2023/11/01 09:22:39;;;;;;;6.78;1.83;;;13.50;99.90;;;;;;4998880;28;20049;-77
2023/11/01 09:25:06;;;;;;;8.43;2.10;;;13.50;99.90;;;;;;4996072;28;20046;-77
2023/11/01 09:27:32;;;;;;;8.55;2.03;;;13.60;99.90;;;;;;5013122;28;20041;-77
2023/11/01 09:29:58;;;;;;;10.00;2.20;;;13.70;99.90;;;;;;4997386;28;20022;-77
2023/11/01 09:32:25;;;;;;;11.20;2.28;;;13.70;99.90;;;;;;4997810;28;20037;-77
2023/11/01 09:34:51;;;;;;;5.95;1.50;;;13.80;99.90;;;;;;4999325;28;20037;-77
2023/11/01 09:37:18;;;;;;;7.47;1.70;;;13.90;99.90;;;;;;4997795;28;20030;-77
2023/11/01 09:39:44;;;;;;;8.25;1.75;;;13.90;99.90;;;;;;4964933;28;20034;-77
2023/11/01 09:42:20;;;;;;;6.75;1.45;;;14.00;99.90;;;;;;4985529;28;20038;-77
2023/11/01 09:44:49;;;;;;;10.02;2.13;;;14.00;99.90;;;;;;5000633;28;20026;-78
2023/11/01 09:47:17;;;;;;;13.13;2.83;;;14.00;99.90;;;;;;5003062;28;20037;-77
2023/11/01 09:49:45;;;;;;;8.18;2.08;;;14.00;99.90;;;;;;5001660;28;20029;-77
2023/11/01 09:52:11;;;;;;;7.30;1.60;;;14.00;99.90;;;;;;4984279;28;20921;-77
2023/11/01 09:54:38;;;;;;;6.82;1.67;;;14.10;99.90;;;;;;4999824;28;20032;-77
2023/11/01 09:57:06;;;;;;;7.45;1.30;;;14.20;99.90;;;;;;4969302;28;20026;-77
2023/11/01 09:59:33;;;;;;;12.63;1.85;;;14.20;99.90;;;;;;4996289;28;20030;-76
2023/11/01 10:02:00;;;;;;;9.85;2.40;;;14.30;99.90;;;;;;4999533;28;20025;-76
2023/11/01 10:04:28;;;;;;;5.70;1.23;;;14.30;99.90;;;;;;5014379;28;20613;-76
2023/11/01 10:06:55;;;;;;;6.60;1.55;;;14.30;99.90;;;;;;5000127;28;20034;-75
2023/11/01 10:09:21;;;;;;;10.70;3.67;;;14.40;99.90;;;;;;5029740;28;20034;-77
2023/11/01 10:11:47;;;;;;;7.10;2.72;;;14.40;99.90;;;;;;4999840;28;20030;-76
2023/11/01 10:14:26;;;;;;;12.30;1.95;;;14.50;99.90;;;;;;5000801;28;20035;-76
2023/11/01 10:16:54;;;;;;;6.78;1.98;;;14.50;99.90;;;;;;4966777;28;20802;-76
2023/11/01 10:19:21;;;;;;;9.10;2.05;;;14.60;99.90;;;;;;4986163;28;20029;-77
2023/11/01 10:21:47;;;;;;;4.47;1.25;;;14.60;99.90;;;;;;4983081;28;20029;-77
2023/11/01 10:24:14;;;;;;;7.03;1.50;;;14.60;99.90;;;;;;4983526;28;20042;-78
2023/11/01 10:26:40;;;;;;;7.40;1.23;;;14.50;99.90;;;;;;4999849;28;20042;-77
2023/11/01 10:29:07;;;;;;;9.75;1.40;;;14.50;99.90;;;;;;5002651;28;20033;-76
2023/11/01 10:31:33;;;;;;;8.60;1.30;;;14.50;99.90;;;;;;4984601;28;20037;-76
2023/11/01 10:34:09;;;;;;;5.40;0.88;;;14.50;99.90;;;;;;4983333;28;20908;-76
2023/11/01 10:36:52;;;;;;;12.82;1.40;;;14.50;99.90;;;;;;4967480;28;20045;-75
2023/11/01 10:39:19;;;;;;;7.47;1.33;;;14.60;99.90;;;;;;4983486;28;20036;-76
2023/11/01 10:41:54;;;;;;;11.40;1.85;;;14.60;99.90;;;;;;5014871;28;20041;-76
2023/11/01 10:44:21;;;;;;;4.35;0.88;;;14.70;99.90;;;;;;4998755;28;20034;-76
2023/11/01 10:46:49;;;;;;;4.40;1.33;;;14.80;99.90;;;;;;4998933;28;20511;-76
2023/11/01 10:49:16;;;;;;;6.05;1.13;;;14.80;99.90;;;;;;5029305;28;20729;-76
2023/11/01 10:51:43;;;;;;;3.58;0.85;;;14.80;99.90;;;;;;4997610;28;20041;-76
2023/11/01 10:54:11;;;;;;;6.82;1.48;;;14.90;99.90;;;;;;4982566;28;20042;-76
2023/11/01 10:56:38;;;;;;;5.70;1.27;;;14.90;99.90;;;;;;5033679;28;20042;-77
2023/11/01 10:59:32;;;;;;;6.20;1.20;;;14.90;99.90;;;;;;4998704;28;20045;-77
2023/11/01 11:02:18;;;;;;;5.60;1.23;;;14.90;99.90;;;;;;5031094;28;20030;-77
2023/11/01 11:05:04;;;;;;;5.90;1.15;;;14.80;99.90;;;;;;4995841;28;20034;-78
2023/11/01 11:07:50;;;;;;;6.07;1.38;;;14.80;99.90;;;;;;4997108;28;20038;-78
2023/11/01 11:10:48;;;;;;;7.00;1.27;;;14.80;99.90;;;;;;5012147;28;20034;-78
2023/11/01 11:13:17;;;;;;;6.10;1.38;;;14.80;99.90;;;;;;4962538;28;20488;-78
2023/11/01 11:15:47;;;;;;;7.03;1.58;;;14.80;99.90;;;;;;4998666;28;20030;-78
2023/11/01 11:18:24;;;;;;;7.55;1.35;;;14.90;99.90;;;;;;4997053;28;20046;-78
2023/11/01 11:20:52;;;;;;;6.43;1.27;;;15.00;99.90;;;;;;4998429;28;20590;-78
2023/11/01 11:23:21;;;;;;;7.07;2.47;;;15.10;99.90;;;;;;5014551;28;20042;-77
2023/11/01 11:25:51;;;;;;;5.72;1.73;;;15.20;99.90;;;;;;4998417;28;20038;-77
2023/11/01 11:28:20;;;;;;;11.52;2.35;;;15.20;99.90;;;;;;4996160;28;20056;-79
2023/11/01 11:30:57;;;;;;;10.23;1.48;;;15.30;99.90;;;;;;4999375;28;20034;-77
2023/11/01 11:33:23;;;;;;;5.55;1.67;;;15.20;99.90;;;;;;4999372;28;20046;-79
2023/11/01 11:36:16;;;;;;;5.68;0.98;;;15.20;99.90;;;;;;4983851;28;20022;-78
2023/11/01 11:39:02;;;;;;;;;;;15.20;99.90;;;;;;4997572;28;20037;-77
2023/11/01 11:41:37;;;;;;;6.28;1.38;;;15.20;99.90;;;;;;5015231;28;19917;-78
2023/11/01 11:44:05;;;;;;;6.78;1.02;;;15.30;99.90;;;;;;4999408;28;20041;-78
2023/11/01 11:46:40;;;;;;;8.23;1.42;;;15.30;99.90;;;;;;4999849;28;20034;-78
2023/11/01 11:49:28;;;;;;;7.53;1.52;;;15.40;99.90;;;;;;4966027;28;20514;-78
2023/11/01 11:51:55;;;;;;;4.18;0.95;;;15.40;99.90;;;;;;5030467;28;20026;-78
2023/11/01 11:54:30;;;;;;;5.50;0.80;;;15.50;99.90;;;;;;4998527;28;20021;-79
2023/11/01 11:56:58;;;;;;;5.00;0.88;;;15.50;99.90;;;;;;4996136;28;20025;-79
2023/11/01 11:59:26;;;;;;;10.93;1.77;;;15.60;99.90;;;;;;4999426;28;20045;-79
2023/11/01 12:02:06;;;;;;;6.28;1.60;;;15.60;99.90;;;;;;5012534;28;20114;-78
2023/11/01 12:04:33;;;;;;;8.25;2.35;;;15.60;99.90;;;;;;4999680;28;20038;-78
2023/11/01 12:07:00;;;;;;;5.28;1.20;;;15.70;99.90;;;;;;4983613;28;20037;-79
2023/11/01 12:09:27;;;;;;;7.60;1.35;;;15.70;99.90;;;;;;4994959;28;20025;-76
2023/11/01 12:11:58;;;;;;;5.75;0.70;;;15.80;99.90;;;;;;4982149;28;20480;-77
2023/11/01 12:14:31;;;;;;;4.25;0.70;;;15.80;99.90;;;;;;4980856;28;20449;-78
2023/11/01 12:17:04;;;;;;;4.30;1.00;;;15.90;99.90;;;;;;5002603;28;20021;-78
2023/11/01 12:19:32;;;;;;;5.97;0.95;;;16.00;99.90;;;;;;4982221;28;20025;-78
2023/11/01 12:22:00;;;;;;;7.35;0.80;;;15.90;99.90;;;;;;4998350;28;20383;-79
2023/11/01 12:24:39;;;;;;;7.15;0.75;;;16.00;99.90;;;;;;4981714;28;20049;-78
2023/11/01 12:27:29;;;;;;;5.43;0.90;;;16.00;99.90;;;;;;4994066;28;20041;-78
2023/11/01 12:29:57;;;;;;;5.65;0.80;;;16.00;99.90;;;;;;4984222;28;20045;-76
2023/11/01 12:32:27;;;;;;;4.80;0.80;;;15.90;99.90;;;;;;5012909;28;20346;-77
2023/11/01 12:34:53;;;;;;;4.47;0.73;;;15.80;99.90;;;;;;4997112;28;20026;-77
2023/11/01 12:37:24;;;;;;;7.22;1.75;;;15.70;99.90;;;;;;4984291;28;20038;-78
2023/11/01 12:40:13;;;;;;;6.18;2.13;;;15.60;99.90;;;;;;4965528;28;20037;-76
2023/11/01 12:42:41;;;;;;;6.43;1.85;;;15.60;99.90;;;;;;4998171;28;20025;-77
2023/11/01 12:45:08;;;;;;;8.50;1.10;;;15.50;99.90;;;;;;4968404;28;20472;-76